sensor_id;sensor_type;location;lat;lon;timestamp;P1;durP1;ratioP1;P2;durP2;ratioP2
22634;SDS011;11484;50.858;4.384;2023-06-14T00:01:46;8.07;;;4.38;;
22634;SDS011;11484;50.858;4.384;2023-06-14T00:04:12;6.72;;;5.03;;
22634;SDS011;11484;50.858;4.384;2023-06-14T00:06:38;5.82;;;5.03;;
22634;SDS011;11484;50.858;4.384;2023-06-14T00:09:04;6.68;;;4.55;;
22634;SDS011;11484;50.858;4.384;2023-06-14T00:11:30;8.20;;;5.25;;
22634;SDS011;11484;50.858;4.384;2023-06-14T00:13:56;8.77;;;4.88;;
22634;SDS011;11484;50.858;4.384;2023-06-14T00:16:22;7.07;;;5.22;;
22634;SDS011;11484;50.858;4.384;2023-06-14T00:18:49;8.32;;;5.53;;
22634;SDS011;11484;50.858;4.384;2023-06-14T00:21:16;7.72;;;5.05;;
22634;SDS011;11484;50.858;4.384;2023-06-14T00:23:42;8.90;;;4.97;;
22634;SDS011;11484;50.858;4.384;2023-06-14T00:26:08;7.72;;;4.97;;
22634;SDS011;11484;50.858;4.384;2023-06-14T00:28:34;7.95;;;4.90;;
22634;SDS011;11484;50.858;4.384;2023-06-14T00:30:59;6.15;;;5.15;;
22634;SDS011;11484;50.858;4.384;2023-06-14T00:33:25;7.07;;;5.07;;
22634;SDS011;11484;50.858;4.384;2023-06-14T00:35:51;5.50;;;4.63;;
22634;SDS011;11484;50.858;4.384;2023-06-14T00:38:19;7.45;;;5.53;;
22634;SDS011;11484;50.858;4.384;2023-06-14T01:01:54;7.40;;;5.45;;
22634;SDS011;11484;50.858;4.384;2023-06-14T01:04:19;6.53;;;4.70;;
22634;SDS011;11484;50.858;4.384;2023-06-14T01:14:45;6.53;;;4.93;;
22634;SDS011;11484;50.858;4.384;2023-06-14T01:17:13;8.93;;;5.53;;
22634;SDS011;11484;50.858;4.384;2023-06-14T01:19:44;7.40;;;5.00;;
22634;SDS011;11484;50.858;4.384;2023-06-14T01:22:11;6.03;;;4.82;;
22634;SDS011;11484;50.858;4.384;2023-06-14T01:24:36;12.73;;;5.75;;
22634;SDS011;11484;50.858;4.384;2023-06-14T01:27:04;7.75;;;5.32;;
22634;SDS011;11484;50.858;4.384;2023-06-14T01:29:30;6.32;;;5.05;;
22634;SDS011;11484;50.858;4.384;2023-06-14T01:31:58;7.18;;;5.40;;
22634;SDS011;11484;50.858;4.384;2023-06-14T01:34:25;6.30;;;5.18;;
22634;SDS011;11484;50.858;4.384;2023-06-14T01:36:51;8.85;;;5.97;;
22634;SDS011;11484;50.858;4.384;2023-06-14T01:39:19;8.25;;;5.68;;
22634;SDS011;11484;50.858;4.384;2023-06-14T01:41:46;7.97;;;5.70;;
22634;SDS011;11484;50.858;4.384;2023-06-14T01:44:14;7.80;;;5.15;;
22634;SDS011;11484;50.858;4.384;2023-06-14T01:46:42;8.25;;;5.65;;
22634;SDS011;11484;50.858;4.384;2023-06-14T01:49:08;7.95;;;5.63;;
22634;SDS011;11484;50.858;4.384;2023-06-14T01:51:35;7.72;;;5.68;;
22634;SDS011;11484;50.858;4.384;2023-06-14T01:54:01;10.68;;;6.32;;
22634;SDS011;11484;50.858;4.384;2023-06-14T01:56:26;8.60;;;5.85;;
22634;SDS011;11484;50.858;4.384;2023-06-14T01:58:52;8.10;;;5.93;;
22634;SDS011;11484;50.858;4.384;2023-06-14T02:01:19;8.00;;;5.57;;
22634;SDS011;11484;50.858;4.384;2023-06-14T02:03:46;8.43;;;5.68;;
22634;SDS011;11484;50.858;4.384;2023-06-14T02:06:14;9.27;;;5.72;;
22634;SDS011;11484;50.858;4.384;2023-06-14T02:08:41;7.80;;;5.95;;
22634;SDS011;11484;50.858;4.384;2023-06-14T02:11:07;7.82;;;6.05;;
22634;SDS011;11484;50.858;4.384;2023-06-14T02:13:33;7.80;;;5.63;;
22634;SDS011;11484;50.858;4.384;2023-06-14T02:15:59;7.45;;;6.10;;
22634;SDS011;11484;50.858;4.384;2023-06-14T02:18:25;7.80;;;6.28;;
22634;SDS011;11484;50.858;4.384;2023-06-14T02:20:52;10.48;;;6.03;;
22634;SDS011;11484;50.858;4.384;2023-06-14T02:23:18;8.48;;;6.10;;
22634;SDS011;11484;50.858;4.384;2023-06-14T02:25:43;7.18;;;6.03;;
22634;SDS011;11484;50.858;4.384;2023-06-14T02:28:11;8.05;;;5.88;;
22634;SDS011;11484;50.858;4.384;2023-06-14T02:30:36;8.80;;;5.72;;
22634;SDS011;11484;50.858;4.384;2023-06-14T02:33:02;6.88;;;6.05;;
22634;SDS011;11484;50.858;4.384;2023-06-14T02:35:29;7.53;;;6.07;;
22634;SDS011;11484;50.858;4.384;2023-06-14T02:37:55;9.32;;;6.28;;
22634;SDS011;11484;50.858;4.384;2023-06-14T02:40:21;8.32;;;6.13;;
22634;SDS011;11484;50.858;4.384;2023-06-14T02:42:46;9.77;;;6.47;;
22634;SDS011;11484;50.858;4.384;2023-06-14T02:45:12;10.52;;;6.13;;
22634;SDS011;11484;50.858;4.384;2023-06-14T02:47:38;7.60;;;6.45;;
22634;SDS011;11484;50.858;4.384;2023-06-14T02:50:03;9.88;;;6.47;;
22634;SDS011;11484;50.858;4.384;2023-06-14T02:52:30;9.85;;;6.45;;
22634;SDS011;11484;50.858;4.384;2023-06-14T02:54:58;10.57;;;6.72;;
22634;SDS011;11484;50.858;4.384;2023-06-14T02:57:24;9.13;;;6.82;;
22634;SDS011;11484;50.858;4.384;2023-06-14T02:59:49;11.10;;;7.22;;
22634;SDS011;11484;50.858;4.384;2023-06-14T03:02:15;10.80;;;6.55;;
22634;SDS011;11484;50.858;4.384;2023-06-14T03:04:41;9.13;;;6.53;;
22634;SDS011;11484;50.858;4.384;2023-06-14T03:07:08;8.82;;;6.68;;
22634;SDS011;11484;50.858;4.384;2023-06-14T03:09:35;8.52;;;6.47;;
22634;SDS011;11484;50.858;4.384;2023-06-14T03:12:05;10.05;;;7.22;;
22634;SDS011;11484;50.858;4.384;2023-06-14T03:14:35;8.43;;;6.63;;
22634;SDS011;11484;50.858;4.384;2023-06-14T03:17:01;7.88;;;6.50;;
22634;SDS011;11484;50.858;4.384;2023-06-14T03:19:27;11.40;;;6.82;;
22634;SDS011;11484;50.858;4.384;2023-06-14T03:21:52;9.10;;;7.03;;
22634;SDS011;11484;50.858;4.384;2023-06-14T03:24:21;7.80;;;6.55;;
22634;SDS011;11484;50.858;4.384;2023-06-14T03:26:48;11.90;;;6.93;;
22634;SDS011;11484;50.858;4.384;2023-06-14T03:29:14;8.52;;;7.15;;
22634;SDS011;11484;50.858;4.384;2023-06-14T03:31:56;10.00;;;7.30;;
22634;SDS011;11484;50.858;4.384;2023-06-14T03:34:24;8.88;;;7.20;;
22634;SDS011;11484;50.858;4.384;2023-06-14T03:36:49;10.15;;;6.60;;
22634;SDS011;11484;50.858;4.384;2023-06-14T03:39:15;8.88;;;7.25;;
22634;SDS011;11484;50.858;4.384;2023-06-14T03:41:41;9.95;;;7.30;;
22634;SDS011;11484;50.858;4.384;2023-06-14T03:44:06;9.23;;;6.95;;
22634;SDS011;11484;50.858;4.384;2023-06-14T03:46:32;10.15;;;7.35;;
22634;SDS011;11484;50.858;4.384;2023-06-14T03:48:58;8.85;;;6.78;;
22634;SDS011;11484;50.858;4.384;2023-06-14T03:51:23;10.27;;;7.60;;
22634;SDS011;11484;50.858;4.384;2023-06-14T03:53:50;10.82;;;6.95;;
22634;SDS011;11484;50.858;4.384;2023-06-14T03:56:16;10.05;;;7.38;;
22634;SDS011;11484;50.858;4.384;2023-06-14T03:58:41;8.07;;;6.82;;
22634;SDS011;11484;50.858;4.384;2023-06-14T04:01:07;8.60;;;6.22;;
22634;SDS011;11484;50.858;4.384;2023-06-14T04:03:33;8.43;;;6.70;;
22634;SDS011;11484;50.858;4.384;2023-06-14T04:05:59;8.63;;;7.22;;
22634;SDS011;11484;50.858;4.384;2023-06-14T04:08:25;9.70;;;6.93;;
22634;SDS011;11484;50.858;4.384;2023-06-14T04:10:51;10.55;;;6.97;;
22634;SDS011;11484;50.858;4.384;2023-06-14T04:13:16;11.57;;;7.20;;
22634;SDS011;11484;50.858;4.384;2023-06-14T04:15:42;8.05;;;6.93;;
22634;SDS011;11484;50.858;4.384;2023-06-14T04:18:11;10.77;;;6.72;;
22634;SDS011;11484;50.858;4.384;2023-06-14T04:20:37;11.60;;;6.75;;
22634;SDS011;11484;50.858;4.384;2023-06-14T04:23:13;8.35;;;6.32;;
22634;SDS011;11484;50.858;4.384;2023-06-14T04:25:40;11.25;;;7.13;;
22634;SDS011;11484;50.858;4.384;2023-06-14T04:28:09;10.52;;;7.30;;
22634;SDS011;11484;50.858;4.384;2023-06-14T04:30:36;11.75;;;7.10;;
22634;SDS011;11484;50.858;4.384;2023-06-14T04:33:04;8.43;;;6.70;;
22634;SDS011;11484;50.858;4.384;2023-06-14T04:35:31;7.30;;;6.50;;
22634;SDS011;11484;50.858;4.384;2023-06-14T04:38:01;9.38;;;7.18;;
22634;SDS011;11484;50.858;4.384;2023-06-14T04:40:29;9.50;;;6.97;;
22634;SDS011;11484;50.858;4.384;2023-06-14T04:42:56;10.30;;;7.00;;
22634;SDS011;11484;50.858;4.384;2023-06-14T04:45:22;8.85;;;6.93;;
22634;SDS011;11484;50.858;4.384;2023-06-14T04:47:49;8.75;;;6.82;;
22634;SDS011;11484;50.858;4.384;2023-06-14T04:50:16;12.43;;;7.10;;
22634;SDS011;11484;50.858;4.384;2023-06-14T04:52:43;12.82;;;7.38;;
22634;SDS011;11484;50.858;4.384;2023-06-14T04:55:09;8.52;;;7.28;;
22634;SDS011;11484;50.858;4.384;2023-06-14T04:57:35;9.30;;;6.68;;
22634;SDS011;11484;50.858;4.384;2023-06-14T05:00:03;9.95;;;7.60;;
22634;SDS011;11484;50.858;4.384;2023-06-14T05:02:30;9.70;;;7.25;;
22634;SDS011;11484;50.858;4.384;2023-06-14T05:04:56;10.45;;;8.02;;
22634;SDS011;11484;50.858;4.384;2023-06-14T05:07:22;12.55;;;7.90;;
22634;SDS011;11484;50.858;4.384;2023-06-14T05:09:49;9.90;;;7.22;;
22634;SDS011;11484;50.858;4.384;2023-06-14T05:12:15;13.40;;;7.45;;
22634;SDS011;11484;50.858;4.384;2023-06-14T05:14:43;9.93;;;7.30;;
22634;SDS011;11484;50.858;4.384;2023-06-14T05:17:09;11.10;;;7.93;;
22634;SDS011;11484;50.858;4.384;2023-06-14T05:19:35;9.63;;;6.93;;
22634;SDS011;11484;50.858;4.384;2023-06-14T05:22:01;13.20;;;7.82;;
22634;SDS011;11484;50.858;4.384;2023-06-14T05:24:28;11.30;;;6.70;;
22634;SDS011;11484;50.858;4.384;2023-06-14T05:26:55;9.98;;;7.13;;
22634;SDS011;11484;50.858;4.384;2023-06-14T05:29:22;9.07;;;6.80;;
22634;SDS011;11484;50.858;4.384;2023-06-14T05:31:47;11.02;;;7.18;;
22634;SDS011;11484;50.858;4.384;2023-06-14T05:34:13;11.57;;;7.22;;
22634;SDS011;11484;50.858;4.384;2023-06-14T05:36:39;11.77;;;7.15;;
22634;SDS011;11484;50.858;4.384;2023-06-14T05:39:05;10.68;;;7.68;;
22634;SDS011;11484;50.858;4.384;2023-06-14T05:41:31;11.10;;;7.10;;
22634;SDS011;11484;50.858;4.384;2023-06-14T05:43:57;10.25;;;7.40;;
22634;SDS011;11484;50.858;4.384;2023-06-14T05:46:25;10.85;;;6.75;;
22634;SDS011;11484;50.858;4.384;2023-06-14T05:48:51;11.05;;;7.40;;
22634;SDS011;11484;50.858;4.384;2023-06-14T05:51:17;9.45;;;7.05;;
22634;SDS011;11484;50.858;4.384;2023-06-14T05:53:46;11.15;;;6.80;;
22634;SDS011;11484;50.858;4.384;2023-06-14T05:56:13;9.18;;;6.78;;
22634;SDS011;11484;50.858;4.384;2023-06-14T05:58:39;8.30;;;6.53;;
22634;SDS011;11484;50.858;4.384;2023-06-14T06:01:05;8.55;;;6.72;;
22634;SDS011;11484;50.858;4.384;2023-06-14T06:03:31;10.68;;;7.38;;
22634;SDS011;11484;50.858;4.384;2023-06-14T06:05:57;9.60;;;6.85;;
22634;SDS011;11484;50.858;4.384;2023-06-14T06:08:23;8.48;;;6.90;;
22634;SDS011;11484;50.858;4.384;2023-06-14T06:10:49;9.43;;;7.07;;
22634;SDS011;11484;50.858;4.384;2023-06-14T06:13:15;8.32;;;6.07;;
22634;SDS011;11484;50.858;4.384;2023-06-14T06:15:41;12.35;;;6.88;;
22634;SDS011;11484;50.858;4.384;2023-06-14T06:18:06;10.23;;;7.55;;
22634;SDS011;11484;50.858;4.384;2023-06-14T06:20:32;9.00;;;6.65;;
22634;SDS011;11484;50.858;4.384;2023-06-14T06:22:58;10.45;;;6.90;;
22634;SDS011;11484;50.858;4.384;2023-06-14T06:25:25;8.70;;;6.20;;
22634;SDS011;11484;50.858;4.384;2023-06-14T06:27:52;10.25;;;6.25;;
22634;SDS011;11484;50.858;4.384;2023-06-14T06:30:19;10.15;;;6.18;;
22634;SDS011;11484;50.858;4.384;2023-06-14T06:32:45;9.30;;;6.15;;
22634;SDS011;11484;50.858;4.384;2023-06-14T06:35:12;9.25;;;6.80;;
22634;SDS011;11484;50.858;4.384;2023-06-14T06:37:38;9.35;;;6.57;;
22634;SDS011;11484;50.858;4.384;2023-06-14T06:40:04;7.68;;;6.00;;
22634;SDS011;11484;50.858;4.384;2023-06-14T06:42:31;10.55;;;6.20;;
22634;SDS011;11484;50.858;4.384;2023-06-14T06:44:57;7.95;;;5.97;;
22634;SDS011;11484;50.858;4.384;2023-06-14T06:47:23;7.85;;;5.38;;
22634;SDS011;11484;50.858;4.384;2023-06-14T06:49:49;10.50;;;5.97;;
22634;SDS011;11484;50.858;4.384;2023-06-14T06:52:15;8.88;;;5.65;;
22634;SDS011;11484;50.858;4.384;2023-06-14T06:54:41;7.38;;;5.13;;
22634;SDS011;11484;50.858;4.384;2023-06-14T06:57:07;6.72;;;5.15;;
22634;SDS011;11484;50.858;4.384;2023-06-14T06:59:33;8.98;;;5.63;;
22634;SDS011;11484;50.858;4.384;2023-06-14T07:01:59;8.20;;;5.30;;
22634;SDS011;11484;50.858;4.384;2023-06-14T07:04:25;6.45;;;4.88;;
22634;SDS011;11484;50.858;4.384;2023-06-14T07:06:51;7.53;;;5.20;;
22634;SDS011;11484;50.858;4.384;2023-06-14T07:09:17;9.30;;;5.75;;
22634;SDS011;11484;50.858;4.384;2023-06-14T07:11:45;6.93;;;5.65;;
22634;SDS011;11484;50.858;4.384;2023-06-14T07:14:11;8.10;;;5.20;;
22634;SDS011;11484;50.858;4.384;2023-06-14T07:16:40;11.15;;;6.00;;
22634;SDS011;11484;50.858;4.384;2023-06-14T07:19:06;7.18;;;5.32;;
22634;SDS011;11484;50.858;4.384;2023-06-14T07:21:34;6.45;;;5.03;;
22634;SDS011;11484;50.858;4.384;2023-06-14T07:24:03;6.05;;;4.80;;
22634;SDS011;11484;50.858;4.384;2023-06-14T07:26:33;6.85;;;5.10;;
22634;SDS011;11484;50.858;4.384;2023-06-14T07:28:59;8.60;;;5.43;;
22634;SDS011;11484;50.858;4.384;2023-06-14T07:31:25;6.75;;;4.60;;
22634;SDS011;11484;50.858;4.384;2023-06-14T07:33:51;7.80;;;4.97;;
22634;SDS011;11484;50.858;4.384;2023-06-14T07:36:17;10.73;;;5.05;;
22634;SDS011;11484;50.858;4.384;2023-06-14T07:38:43;6.60;;;5.05;;
22634;SDS011;11484;50.858;4.384;2023-06-14T07:41:09;7.82;;;5.03;;
22634;SDS011;11484;50.858;4.384;2023-06-14T07:43:34;6.20;;;5.07;;
22634;SDS011;11484;50.858;4.384;2023-06-14T07:46:00;7.38;;;5.53;;
22634;SDS011;11484;50.858;4.384;2023-06-14T07:48:27;8.70;;;5.80;;
22634;SDS011;11484;50.858;4.384;2023-06-14T07:50:52;5.85;;;4.90;;
22634;SDS011;11484;50.858;4.384;2023-06-14T07:53:18;8.85;;;5.18;;
22634;SDS011;11484;50.858;4.384;2023-06-14T07:55:44;7.45;;;4.97;;
22634;SDS011;11484;50.858;4.384;2023-06-14T07:58:12;6.97;;;4.88;;
22634;SDS011;11484;50.858;4.384;2023-06-14T08:00:38;8.02;;;4.85;;
22634;SDS011;11484;50.858;4.384;2023-06-14T08:03:04;11.00;;;5.68;;
22634;SDS011;11484;50.858;4.384;2023-06-14T08:05:29;6.18;;;5.03;;
22634;SDS011;11484;50.858;4.384;2023-06-14T08:07:55;8.27;;;4.75;;
22634;SDS011;11484;50.858;4.384;2023-06-14T08:10:21;10.15;;;5.13;;
22634;SDS011;11484;50.858;4.384;2023-06-14T08:12:48;5.03;;;4.20;;
22634;SDS011;11484;50.858;4.384;2023-06-14T08:15:15;7.53;;;4.47;;
22634;SDS011;11484;50.858;4.384;2023-06-14T08:17:44;6.03;;;4.07;;
22634;SDS011;11484;50.858;4.384;2023-06-14T08:20:10;7.28;;;4.93;;
22634;SDS011;11484;50.858;4.384;2023-06-14T08:22:37;8.57;;;4.65;;
22634;SDS011;11484;50.858;4.384;2023-06-14T08:25:03;6.80;;;4.43;;
22634;SDS011;11484;50.858;4.384;2023-06-14T08:27:29;7.82;;;4.70;;
22634;SDS011;11484;50.858;4.384;2023-06-14T08:29:55;7.80;;;4.50;;
22634;SDS011;11484;50.858;4.384;2023-06-14T08:32:21;6.78;;;4.50;;
22634;SDS011;11484;50.858;4.384;2023-06-14T08:34:47;7.97;;;4.85;;
22634;SDS011;11484;50.858;4.384;2023-06-14T08:37:14;4.90;;;4.20;;
22634;SDS011;11484;50.858;4.384;2023-06-14T08:39:40;7.75;;;4.47;;
22634;SDS011;11484;50.858;4.384;2023-06-14T08:42:06;6.13;;;4.32;;
22634;SDS011;11484;50.858;4.384;2023-06-14T08:44:33;6.13;;;4.80;;
22634;SDS011;11484;50.858;4.384;2023-06-14T08:46:59;4.85;;;4.35;;
22634;SDS011;11484;50.858;4.384;2023-06-14T08:49:25;5.30;;;4.80;;
22634;SDS011;11484;50.858;4.384;2023-06-14T08:51:57;7.38;;;4.55;;
22634;SDS011;11484;50.858;4.384;2023-06-14T08:54:27;6.22;;;4.55;;
22634;SDS011;11484;50.858;4.384;2023-06-14T08:56:55;5.47;;;4.70;;
22634;SDS011;11484;50.858;4.384;2023-06-14T09:01:56;7.32;;;4.60;;
22634;SDS011;11484;50.858;4.384;2023-06-14T09:04:22;6.15;;;4.68;;
22634;SDS011;11484;50.858;4.384;2023-06-14T09:06:49;5.97;;;4.45;;
22634;SDS011;11484;50.858;4.384;2023-06-14T09:09:20;6.90;;;4.80;;
22634;SDS011;11484;50.858;4.384;2023-06-14T09:11:46;7.88;;;4.68;;
22634;SDS011;11484;50.858;4.384;2023-06-14T09:14:12;6.50;;;4.97;;
22634;SDS011;11484;50.858;4.384;2023-06-14T09:16:38;8.15;;;4.95;;
22634;SDS011;11484;50.858;4.384;2023-06-14T09:19:03;5.97;;;5.22;;
22634;SDS011;11484;50.858;4.384;2023-06-14T09:21:29;6.82;;;4.63;;
22634;SDS011;11484;50.858;4.384;2023-06-14T09:23:59;9.45;;;4.45;;
22634;SDS011;11484;50.858;4.384;2023-06-14T09:26:25;5.32;;;4.45;;
22634;SDS011;11484;50.858;4.384;2023-06-14T09:28:52;6.32;;;4.63;;
22634;SDS011;11484;50.858;4.384;2023-06-14T09:31:18;6.68;;;5.20;;
22634;SDS011;11484;50.858;4.384;2023-06-14T09:33:46;10.15;;;5.15;;
22634;SDS011;11484;50.858;4.384;2023-06-14T09:36:16;10.07;;;5.07;;
22634;SDS011;11484;50.858;4.384;2023-06-14T09:38:57;7.97;;;4.53;;
22634;SDS011;11484;50.858;4.384;2023-06-14T09:41:30;8.25;;;4.65;;
22634;SDS011;11484;50.858;4.384;2023-06-14T09:43:58;6.53;;;4.57;;
22634;SDS011;11484;50.858;4.384;2023-06-14T09:46:29;6.43;;;4.65;;
22634;SDS011;11484;50.858;4.384;2023-06-14T09:48:58;7.45;;;4.55;;
22634;SDS011;11484;50.858;4.384;2023-06-14T09:51:25;6.63;;;4.72;;
22634;SDS011;11484;50.858;4.384;2023-06-14T09:53:55;8.50;;;4.82;;
22634;SDS011;11484;50.858;4.384;2023-06-14T09:56:29;5.13;;;4.63;;
22634;SDS011;11484;50.858;4.384;2023-06-14T09:59:06;10.02;;;4.63;;
22634;SDS011;11484;50.858;4.384;2023-06-14T10:01:35;4.63;;;3.92;;
22634;SDS011;11484;50.858;4.384;2023-06-14T10:04:06;5.68;;;4.45;;
22634;SDS011;11484;50.858;4.384;2023-06-14T10:06:35;6.53;;;4.32;;
22634;SDS011;11484;50.858;4.384;2023-06-14T10:09:03;6.22;;;4.10;;
22634;SDS011;11484;50.858;4.384;2023-06-14T10:11:30;5.63;;;4.15;;
22634;SDS011;11484;50.858;4.384;2023-06-14T10:13:57;4.88;;;3.92;;
22634;SDS011;11484;50.858;4.384;2023-06-14T10:16:37;6.63;;;3.90;;
22634;SDS011;11484;50.858;4.384;2023-06-14T10:19:07;6.03;;;4.03;;
22634;SDS011;11484;50.858;4.384;2023-06-14T10:24:23;7.90;;;4.28;;
22634;SDS011;11484;50.858;4.384;2023-06-14T10:26:57;6.95;;;4.47;;
22634;SDS011;11484;50.858;4.384;2023-06-14T10:29:27;6.05;;;4.13;;
22634;SDS011;11484;50.858;4.384;2023-06-14T10:31:58;6.57;;;4.40;;
22634;SDS011;11484;50.858;4.384;2023-06-14T10:34:25;6.65;;;4.60;;
22634;SDS011;11484;50.858;4.384;2023-06-14T10:37:03;7.20;;;4.70;;
22634;SDS011;11484;50.858;4.384;2023-06-14T10:39:30;6.43;;;4.07;;
22634;SDS011;11484;50.858;4.384;2023-06-14T10:41:57;6.53;;;4.00;;
22634;SDS011;11484;50.858;4.384;2023-06-14T10:47:00;5.07;;;4.05;;
22634;SDS011;11484;50.858;4.384;2023-06-14T10:52:09;6.22;;;4.07;;
22634;SDS011;11484;50.858;4.384;2023-06-14T10:57:29;6.72;;;4.60;;
22634;SDS011;11484;50.858;4.384;2023-06-14T10:59:59;12.35;;;4.43;;
22634;SDS011;11484;50.858;4.384;2023-06-14T11:05:25;5.03;;;3.93;;
22634;SDS011;11484;50.858;4.384;2023-06-14T11:11:07;6.45;;;4.05;;
22634;SDS011;11484;50.858;4.384;2023-06-14T11:13:34;6.53;;;4.25;;
22634;SDS011;11484;50.858;4.384;2023-06-14T11:16:10;6.13;;;3.70;;
22634;SDS011;11484;50.858;4.384;2023-06-14T11:18:37;7.22;;;4.00;;
22634;SDS011;11484;50.858;4.384;2023-06-14T11:21:02;9.15;;;3.83;;
22634;SDS011;11484;50.858;4.384;2023-06-14T11:23:28;5.88;;;4.10;;
22634;SDS011;11484;50.858;4.384;2023-06-14T11:25:54;4.78;;;3.58;;
22634;SDS011;11484;50.858;4.384;2023-06-14T11:28:20;8.63;;;4.35;;
22634;SDS011;11484;50.858;4.384;2023-06-14T11:30:47;6.22;;;3.88;;
22634;SDS011;11484;50.858;4.384;2023-06-14T11:33:16;8.82;;;4.68;;
22634;SDS011;11484;50.858;4.384;2023-06-14T11:35:46;9.68;;;4.00;;
22634;SDS011;11484;50.858;4.384;2023-06-14T11:38:12;4.22;;;3.58;;
22634;SDS011;11484;50.858;4.384;2023-06-14T11:40:38;9.05;;;4.40;;
22634;SDS011;11484;50.858;4.384;2023-06-14T11:43:04;6.80;;;3.78;;
22634;SDS011;11484;50.858;4.384;2023-06-14T11:45:30;4.78;;;3.55;;
22634;SDS011;11484;50.858;4.384;2023-06-14T11:47:57;6.57;;;4.22;;
22634;SDS011;11484;50.858;4.384;2023-06-14T11:50:24;6.32;;;4.15;;
22634;SDS011;11484;50.858;4.384;2023-06-14T11:52:56;7.32;;;3.85;;
22634;SDS011;11484;50.858;4.384;2023-06-14T11:55:25;6.05;;;3.95;;
22634;SDS011;11484;50.858;4.384;2023-06-14T11:57:51;6.15;;;3.75;;
22634;SDS011;11484;50.858;4.384;2023-06-14T12:00:19;5.57;;;3.92;;
22634;SDS011;11484;50.858;4.384;2023-06-14T12:02:53;10.65;;;3.67;;
22634;SDS011;11484;50.858;4.384;2023-06-14T12:05:22;6.82;;;3.90;;
22634;SDS011;11484;50.858;4.384;2023-06-14T12:07:49;7.82;;;3.92;;
22634;SDS011;11484;50.858;4.384;2023-06-14T12:10:18;6.45;;;4.10;;
22634;SDS011;11484;50.858;4.384;2023-06-14T12:12:44;5.38;;;3.30;;
22634;SDS011;11484;50.858;4.384;2023-06-14T12:15:10;5.10;;;3.35;;
22634;SDS011;11484;50.858;4.384;2023-06-14T12:17:37;5.15;;;3.83;;
22634;SDS011;11484;50.858;4.384;2023-06-14T12:20:11;9.10;;;3.58;;
22634;SDS011;11484;50.858;4.384;2023-06-14T12:22:56;6.57;;;3.58;;
22634;SDS011;11484;50.858;4.384;2023-06-14T12:25:27;4.70;;;3.35;;
22634;SDS011;11484;50.858;4.384;2023-06-14T12:27:56;5.55;;;3.38;;
22634;SDS011;11484;50.858;4.384;2023-06-14T12:30:29;5.97;;;3.70;;
22634;SDS011;11484;50.858;4.384;2023-06-14T12:32:54;7.65;;;3.78;;
22634;SDS011;11484;50.858;4.384;2023-06-14T12:35:20;5.85;;;3.30;;
22634;SDS011;11484;50.858;4.384;2023-06-14T12:37:46;6.70;;;3.53;;
22634;SDS011;11484;50.858;4.384;2023-06-14T12:40:12;8.43;;;3.45;;
22634;SDS011;11484;50.858;4.384;2023-06-14T12:42:39;5.50;;;3.65;;
22634;SDS011;11484;50.858;4.384;2023-06-14T12:45:06;4.18;;;3.50;;
22634;SDS011;11484;50.858;4.384;2023-06-14T12:47:32;5.32;;;3.10;;
22634;SDS011;11484;50.858;4.384;2023-06-14T12:49:58;6.35;;;3.20;;
22634;SDS011;11484;50.858;4.384;2023-06-14T12:52:23;5.53;;;3.17;;
22634;SDS011;11484;50.858;4.384;2023-06-14T12:54:49;10.32;;;3.53;;
22634;SDS011;11484;50.858;4.384;2023-06-14T12:57:15;4.75;;;3.00;;
22634;SDS011;11484;50.858;4.384;2023-06-14T12:59:41;6.03;;;3.05;;
22634;SDS011;11484;50.858;4.384;2023-06-14T13:02:13;4.78;;;3.20;;
22634;SDS011;11484;50.858;4.384;2023-06-14T13:04:40;7.13;;;3.55;;
22634;SDS011;11484;50.858;4.384;2023-06-14T13:07:06;7.32;;;3.50;;
22634;SDS011;11484;50.858;4.384;2023-06-14T13:09:32;5.57;;;3.17;;
22634;SDS011;11484;50.858;4.384;2023-06-14T13:11:58;5.88;;;3.03;;
22634;SDS011;11484;50.858;4.384;2023-06-14T13:14:23;6.32;;;2.85;;
22634;SDS011;11484;50.858;4.384;2023-06-14T13:16:49;4.47;;;2.85;;
22634;SDS011;11484;50.858;4.384;2023-06-14T13:19:15;5.05;;;3.08;;
22634;SDS011;11484;50.858;4.384;2023-06-14T13:21:41;4.43;;;2.70;;
22634;SDS011;11484;50.858;4.384;2023-06-14T13:24:07;5.72;;;2.70;;
22634;SDS011;11484;50.858;4.384;2023-06-14T13:26:33;4.55;;;2.90;;
22634;SDS011;11484;50.858;4.384;2023-06-14T13:29:00;7.13;;;2.72;;
22634;SDS011;11484;50.858;4.384;2023-06-14T13:31:25;6.28;;;2.72;;
22634;SDS011;11484;50.858;4.384;2023-06-14T13:33:51;5.05;;;2.47;;
22634;SDS011;11484;50.858;4.384;2023-06-14T13:36:17;4.00;;;2.65;;
22634;SDS011;11484;50.858;4.384;2023-06-14T13:38:43;4.82;;;2.47;;
22634;SDS011;11484;50.858;4.384;2023-06-14T13:41:08;3.28;;;2.22;;
22634;SDS011;11484;50.858;4.384;2023-06-14T13:43:34;4.25;;;2.70;;
22634;SDS011;11484;50.858;4.384;2023-06-14T13:46:00;4.32;;;2.72;;
22634;SDS011;11484;50.858;4.384;2023-06-14T13:48:26;4.80;;;2.67;;
22634;SDS011;11484;50.858;4.384;2023-06-14T13:50:51;5.55;;;2.65;;
22634;SDS011;11484;50.858;4.384;2023-06-14T13:53:17;6.00;;;2.78;;
22634;SDS011;11484;50.858;4.384;2023-06-14T13:55:43;5.50;;;2.53;;
22634;SDS011;11484;50.858;4.384;2023-06-14T13:58:09;7.18;;;3.08;;
22634;SDS011;11484;50.858;4.384;2023-06-14T14:00:35;3.75;;;2.45;;
22634;SDS011;11484;50.858;4.384;2023-06-14T14:03:05;5.85;;;2.20;;
22634;SDS011;11484;50.858;4.384;2023-06-14T14:05:31;3.40;;;1.92;;
22634;SDS011;11484;50.858;4.384;2023-06-14T14:07:56;2.75;;;1.73;;
22634;SDS011;11484;50.858;4.384;2023-06-14T14:10:24;2.60;;;1.70;;
22634;SDS011;11484;50.858;4.384;2023-06-14T14:12:50;4.55;;;2.10;;
22634;SDS011;11484;50.858;4.384;2023-06-14T14:15:16;2.90;;;1.70;;
22634;SDS011;11484;50.858;4.384;2023-06-14T14:17:42;2.60;;;1.60;;
22634;SDS011;11484;50.858;4.384;2023-06-14T14:20:08;3.53;;;1.70;;
22634;SDS011;11484;50.858;4.384;2023-06-14T14:22:36;4.32;;;1.73;;
22634;SDS011;11484;50.858;4.384;2023-06-14T14:25:02;6.28;;;1.85;;
22634;SDS011;11484;50.858;4.384;2023-06-14T14:27:28;3.53;;;1.45;;
22634;SDS011;11484;50.858;4.384;2023-06-14T14:29:53;5.15;;;1.58;;
22634;SDS011;11484;50.858;4.384;2023-06-14T14:32:19;3.63;;;1.58;;
22634;SDS011;11484;50.858;4.384;2023-06-14T14:34:45;4.07;;;1.40;;
22634;SDS011;11484;50.858;4.384;2023-06-14T14:37:11;4.55;;;1.55;;
22634;SDS011;11484;50.858;4.384;2023-06-14T14:39:38;3.20;;;1.42;;
22634;SDS011;11484;50.858;4.384;2023-06-14T14:42:04;3.90;;;1.50;;
22634;SDS011;11484;50.858;4.384;2023-06-14T14:44:30;3.80;;;1.50;;
22634;SDS011;11484;50.858;4.384;2023-06-14T14:46:56;2.83;;;1.23;;
22634;SDS011;11484;50.858;4.384;2023-06-14T14:49:22;2.42;;;1.45;;
22634;SDS011;11484;50.858;4.384;2023-06-14T14:51:47;5.30;;;1.50;;
22634;SDS011;11484;50.858;4.384;2023-06-14T14:54:13;3.30;;;1.20;;
22634;SDS011;11484;50.858;4.384;2023-06-14T14:56:38;3.08;;;1.10;;
22634;SDS011;11484;50.858;4.384;2023-06-14T14:59:04;3.15;;;1.20;;
22634;SDS011;11484;50.858;4.384;2023-06-14T15:01:30;2.60;;;1.50;;
22634;SDS011;11484;50.858;4.384;2023-06-14T15:03:55;2.85;;;1.17;;
22634;SDS011;11484;50.858;4.384;2023-06-14T15:06:21;5.47;;;1.48;;
22634;SDS011;11484;50.858;4.384;2023-06-14T15:08:47;2.38;;;1.38;;
22634;SDS011;11484;50.858;4.384;2023-06-14T15:11:13;3.47;;;1.50;;
22634;SDS011;11484;50.858;4.384;2023-06-14T15:13:38;2.70;;;1.25;;
22634;SDS011;11484;50.858;4.384;2023-06-14T15:16:04;4.93;;;1.30;;
22634;SDS011;11484;50.858;4.384;2023-06-14T15:18:30;3.50;;;1.50;;
22634;SDS011;11484;50.858;4.384;2023-06-14T15:20:56;4.43;;;1.48;;
22634;SDS011;11484;50.858;4.384;2023-06-14T15:23:26;3.03;;;1.20;;
22634;SDS011;11484;50.858;4.384;2023-06-14T15:25:54;2.95;;;1.65;;
22634;SDS011;11484;50.858;4.384;2023-06-14T15:28:22;3.60;;;1.35;;
22634;SDS011;11484;50.858;4.384;2023-06-14T15:30:49;4.57;;;1.60;;
22634;SDS011;11484;50.858;4.384;2023-06-14T15:33:15;2.38;;;1.13;;